sensor_id;sensor_type;location;lat;lon;timestamp;P1;durP1;ratioP1;P2;durP2;ratioP2
78581;SDS011;67878;46.242;5.974;2023-07-13T00:01:28;1.30;;;1.13;;
78581;SDS011;67878;46.242;5.974;2023-07-13T00:03:54;2.10;;;1.30;;
78581;SDS011;67878;46.242;5.974;2023-07-13T00:06:21;2.05;;;1.30;;
78581;SDS011;67878;46.242;5.974;2023-07-13T00:08:46;2.47;;;1.50;;
78581;SDS011;67878;46.242;5.974;2023-07-13T00:11:13;1.80;;;1.05;;
78581;SDS011;67878;46.242;5.974;2023-07-13T00:13:39;1.67;;;1.30;;
78581;SDS011;67878;46.242;5.974;2023-07-13T00:16:06;1.73;;;1.23;;
78581;SDS011;67878;46.242;5.974;2023-07-13T00:18:32;1.75;;;1.30;;
78581;SDS011;67878;46.242;5.974;2023-07-13T00:20:57;1.60;;;1.30;;
78581;SDS011;67878;46.242;5.974;2023-07-13T00:23:34;2.33;;;1.55;;
78581;SDS011;67878;46.242;5.974;2023-07-13T00:26:00;2.25;;;1.55;;
78581;SDS011;67878;46.242;5.974;2023-07-13T00:28:27;1.92;;;1.30;;
78581;SDS011;67878;46.242;5.974;2023-07-13T00:30:52;1.35;;;1.20;;
78581;SDS011;67878;46.242;5.974;2023-07-13T00:33:17;2.22;;;1.30;;
78581;SDS011;67878;46.242;5.974;2023-07-13T00:35:43;1.80;;;1.30;;
78581;SDS011;67878;46.242;5.974;2023-07-13T00:38:09;2.03;;;1.30;;
78581;SDS011;67878;46.242;5.974;2023-07-13T00:40:34;1.40;;;0.98;;
78581;SDS011;67878;46.242;5.974;2023-07-13T00:43:00;1.92;;;1.13;;
78581;SDS011;67878;46.242;5.974;2023-07-13T00:47:51;2.13;;;1.10;;
78581;SDS011;67878;46.242;5.974;2023-07-13T00:50:16;2.88;;;1.27;;
78581;SDS011;67878;46.242;5.974;2023-07-13T00:52:49;2.60;;;1.20;;
78581;SDS011;67878;46.242;5.974;2023-07-13T00:55:18;2.00;;;1.10;;
78581;SDS011;67878;46.242;5.974;2023-07-13T00:57:44;1.90;;;1.02;;
78581;SDS011;67878;46.242;5.974;2023-07-13T01:00:09;1.88;;;1.00;;
78581;SDS011;67878;46.242;5.974;2023-07-13T01:02:37;3.13;;;1.02;;
78581;SDS011;67878;46.242;5.974;2023-07-13T01:05:15;1.45;;;1.00;;
78581;SDS011;67878;46.242;5.974;2023-07-13T01:07:41;1.55;;;1.02;;
78581;SDS011;67878;46.242;5.974;2023-07-13T01:10:09;2.92;;;1.20;;
78581;SDS011;67878;46.242;5.974;2023-07-13T01:12:35;1.40;;;1.00;;
78581;SDS011;67878;46.242;5.974;2023-07-13T01:15:01;1.92;;;1.00;;
78581;SDS011;67878;46.242;5.974;2023-07-13T01:17:28;1.77;;;1.10;;
78581;SDS011;67878;46.242;5.974;2023-07-13T01:19:54;1.25;;;0.90;;
78581;SDS011;67878;46.242;5.974;2023-07-13T01:22:19;1.77;;;1.00;;
78581;SDS011;67878;46.242;5.974;2023-07-13T01:24:50;1.40;;;1.13;;
78581;SDS011;67878;46.242;5.974;2023-07-13T01:27:17;1.40;;;1.00;;
78581;SDS011;67878;46.242;5.974;2023-07-13T01:29:45;1.70;;;1.00;;
78581;SDS011;67878;46.242;5.974;2023-07-13T01:32:13;1.40;;;0.93;;
78581;SDS011;67878;46.242;5.974;2023-07-13T01:34:40;2.58;;;1.00;;
78581;SDS011;67878;46.242;5.974;2023-07-13T01:37:09;1.58;;;0.70;;
78581;SDS011;67878;46.242;5.974;2023-07-13T01:39:36;2.13;;;1.00;;
78581;SDS011;67878;46.242;5.974;2023-07-13T01:42:02;1.50;;;0.90;;
78581;SDS011;67878;46.242;5.974;2023-07-13T01:44:28;3.97;;;1.15;;
78581;SDS011;67878;46.242;5.974;2023-07-13T01:46:53;1.13;;;0.85;;
78581;SDS011;67878;46.242;5.974;2023-07-13T01:49:19;1.77;;;1.00;;
78581;SDS011;67878;46.242;5.974;2023-07-13T01:51:44;1.65;;;0.77;;
78581;SDS011;67878;46.242;5.974;2023-07-13T01:54:10;2.28;;;0.80;;
78581;SDS011;67878;46.242;5.974;2023-07-13T01:56:35;1.10;;;0.80;;
78581;SDS011;67878;46.242;5.974;2023-07-13T01:59:00;0.93;;;0.73;;
78581;SDS011;67878;46.242;5.974;2023-07-13T02:01:26;1.40;;;0.70;;
78581;SDS011;67878;46.242;5.974;2023-07-13T02:03:51;1.55;;;0.90;;
78581;SDS011;67878;46.242;5.974;2023-07-13T02:06:16;2.28;;;0.85;;
78581;SDS011;67878;46.242;5.974;2023-07-13T02:08:42;1.88;;;0.90;;
78581;SDS011;67878;46.242;5.974;2023-07-13T02:11:07;0.98;;;0.55;;
78581;SDS011;67878;46.242;5.974;2023-07-13T02:13:33;1.50;;;0.80;;
78581;SDS011;67878;46.242;5.974;2023-07-13T02:15:58;0.93;;;0.73;;
78581;SDS011;67878;46.242;5.974;2023-07-13T02:18:24;1.08;;;0.80;;
78581;SDS011;67878;46.242;5.974;2023-07-13T02:20:49;1.33;;;0.70;;
78581;SDS011;67878;46.242;5.974;2023-07-13T02:23:14;1.60;;;0.80;;
78581;SDS011;67878;46.242;5.974;2023-07-13T02:25:40;1.08;;;0.70;;
78581;SDS011;67878;46.242;5.974;2023-07-13T02:28:06;1.35;;;0.70;;
78581;SDS011;67878;46.242;5.974;2023-07-13T02:30:31;1.33;;;0.80;;
78581;SDS011;67878;46.242;5.974;2023-07-13T02:32:57;1.88;;;0.70;;
78581;SDS011;67878;46.242;5.974;2023-07-13T02:35:23;3.53;;;0.80;;
78581;SDS011;67878;46.242;5.974;2023-07-13T02:37:48;3.28;;;0.70;;
78581;SDS011;67878;46.242;5.974;2023-07-13T02:40:14;1.10;;;0.77;;
78581;SDS011;67878;46.242;5.974;2023-07-13T02:42:39;2.10;;;0.60;;
78581;SDS011;67878;46.242;5.974;2023-07-13T02:45:05;0.60;;;0.60;;
78581;SDS011;67878;46.242;5.974;2023-07-13T02:47:33;0.88;;;0.60;;
78581;SDS011;67878;46.242;5.974;2023-07-13T02:49:58;1.77;;;0.80;;
78581;SDS011;67878;46.242;5.974;2023-07-13T02:52:24;1.30;;;0.70;;
78581;SDS011;67878;46.242;5.974;2023-07-13T02:54:49;0.93;;;0.60;;
78581;SDS011;67878;46.242;5.974;2023-07-13T02:57:15;1.30;;;0.80;;
78581;SDS011;67878;46.242;5.974;2023-07-13T02:59:40;1.23;;;0.60;;
78581;SDS011;67878;46.242;5.974;2023-07-13T03:02:06;1.08;;;0.80;;
78581;SDS011;67878;46.242;5.974;2023-07-13T03:04:31;1.95;;;0.63;;
78581;SDS011;67878;46.242;5.974;2023-07-13T03:06:56;0.90;;;0.70;;
78581;SDS011;67878;46.242;5.974;2023-07-13T03:09:23;1.58;;;0.73;;
78581;SDS011;67878;46.242;5.974;2023-07-13T03:11:49;0.98;;;0.80;;
78581;SDS011;67878;46.242;5.974;2023-07-13T03:14:14;1.25;;;0.80;;
78581;SDS011;67878;46.242;5.974;2023-07-13T03:16:40;1.52;;;0.65;;
78581;SDS011;67878;46.242;5.974;2023-07-13T03:19:05;1.27;;;0.70;;
78581;SDS011;67878;46.242;5.974;2023-07-13T03:21:31;2.15;;;0.60;;
78581;SDS011;67878;46.242;5.974;2023-07-13T03:23:56;2.13;;;0.93;;
78581;SDS011;67878;46.242;5.974;2023-07-13T03:26:21;1.67;;;0.73;;
78581;SDS011;67878;46.242;5.974;2023-07-13T03:28:47;0.88;;;0.68;;
78581;SDS011;67878;46.242;5.974;2023-07-13T03:31:14;1.20;;;0.65;;
78581;SDS011;67878;46.242;5.974;2023-07-13T03:33:44;1.95;;;0.60;;
78581;SDS011;67878;46.242;5.974;2023-07-13T03:36:12;1.13;;;0.73;;
78581;SDS011;67878;46.242;5.974;2023-07-13T03:38:44;0.77;;;0.70;;
78581;SDS011;67878;46.242;5.974;2023-07-13T03:41:20;1.13;;;0.70;;
78581;SDS011;67878;46.242;5.974;2023-07-13T03:43:46;3.38;;;0.73;;
78581;SDS011;67878;46.242;5.974;2023-07-13T03:46:13;0.93;;;0.60;;
78581;SDS011;67878;46.242;5.974;2023-07-13T03:48:39;1.38;;;0.70;;
78581;SDS011;67878;46.242;5.974;2023-07-13T03:51:07;1.23;;;0.77;;
78581;SDS011;67878;46.242;5.974;2023-07-13T03:53:35;1.80;;;0.80;;
78581;SDS011;67878;46.242;5.974;2023-07-13T03:56:02;0.93;;;0.60;;
78581;SDS011;67878;46.242;5.974;2023-07-13T04:00:55;1.92;;;0.73;;
78581;SDS011;67878;46.242;5.974;2023-07-13T04:03:22;0.90;;;0.70;;
78581;SDS011;67878;46.242;5.974;2023-07-13T04:05:48;0.80;;;0.70;;
78581;SDS011;67878;46.242;5.974;2023-07-13T04:08:13;0.80;;;0.60;;
78581;SDS011;67878;46.242;5.974;2023-07-13T04:10:39;0.90;;;0.80;;
78581;SDS011;67878;46.242;5.974;2023-07-13T04:13:04;0.93;;;0.60;;
78581;SDS011;67878;46.242;5.974;2023-07-13T04:15:30;0.98;;;0.70;;
78581;SDS011;67878;46.242;5.974;2023-07-13T04:17:56;0.95;;;0.70;;
78581;SDS011;67878;46.242;5.974;2023-07-13T04:20:22;0.82;;;0.65;;
78581;SDS011;67878;46.242;5.974;2023-07-13T04:22:47;0.82;;;0.70;;
78581;SDS011;67878;46.242;5.974;2023-07-13T04:25:13;1.10;;;0.68;;
78581;SDS011;67878;46.242;5.974;2023-07-13T04:27:38;0.93;;;0.55;;
78581;SDS011;67878;46.242;5.974;2023-07-13T04:30:05;1.00;;;0.70;;
78581;SDS011;67878;46.242;5.974;2023-07-13T04:32:31;0.90;;;0.70;;
78581;SDS011;67878;46.242;5.974;2023-07-13T04:34:57;1.27;;;0.80;;
78581;SDS011;67878;46.242;5.974;2023-07-13T04:37:25;1.60;;;0.68;;
78581;SDS011;67878;46.242;5.974;2023-07-13T04:39:51;1.05;;;0.52;;
78581;SDS011;67878;46.242;5.974;2023-07-13T04:42:16;0.88;;;0.70;;
78581;SDS011;67878;46.242;5.974;2023-07-13T04:44:42;0.85;;;0.60;;
78581;SDS011;67878;46.242;5.974;2023-07-13T04:47:12;0.75;;;0.52;;
78581;SDS011;67878;46.242;5.974;2023-07-13T04:49:37;0.60;;;0.50;;
78581;SDS011;67878;46.242;5.974;2023-07-13T04:52:02;1.65;;;0.82;;
78581;SDS011;67878;46.242;5.974;2023-07-13T04:54:28;1.02;;;0.70;;
78581;SDS011;67878;46.242;5.974;2023-07-13T04:56:53;0.50;;;0.40;;
78581;SDS011;67878;46.242;5.974;2023-07-13T04:59:19;1.25;;;0.50;;
78581;SDS011;67878;46.242;5.974;2023-07-13T05:01:44;1.38;;;0.60;;
78581;SDS011;67878;46.242;5.974;2023-07-13T05:04:10;1.10;;;0.68;;
78581;SDS011;67878;46.242;5.974;2023-07-13T05:06:36;0.80;;;0.70;;
78581;SDS011;67878;46.242;5.974;2023-07-13T05:09:01;0.80;;;0.55;;
78581;SDS011;67878;46.242;5.974;2023-07-13T05:11:26;0.63;;;0.60;;
78581;SDS011;67878;46.242;5.974;2023-07-13T05:13:52;0.93;;;0.82;;
78581;SDS011;67878;46.242;5.974;2023-07-13T05:16:17;0.60;;;0.50;;
78581;SDS011;67878;46.242;5.974;2023-07-13T05:18:44;0.77;;;0.57;;
78581;SDS011;67878;46.242;5.974;2023-07-13T05:21:09;0.70;;;0.60;;
78581;SDS011;67878;46.242;5.974;2023-07-13T05:23:36;0.98;;;0.60;;
78581;SDS011;67878;46.242;5.974;2023-07-13T05:26:01;1.65;;;0.52;;
78581;SDS011;67878;46.242;5.974;2023-07-13T05:28:27;1.20;;;0.60;;
78581;SDS011;67878;46.242;5.974;2023-07-13T05:30:53;1.08;;;0.70;;
78581;SDS011;67878;46.242;5.974;2023-07-13T05:33:20;0.88;;;0.68;;
78581;SDS011;67878;46.242;5.974;2023-07-13T05:35:51;1.05;;;0.70;;
78581;SDS011;67878;46.242;5.974;2023-07-13T05:38:16;0.73;;;0.60;;
78581;SDS011;67878;46.242;5.974;2023-07-13T05:40:44;1.20;;;0.60;;
78581;SDS011;67878;46.242;5.974;2023-07-13T05:43:10;0.73;;;0.65;;
78581;SDS011;67878;46.242;5.974;2023-07-13T05:45:36;0.75;;;0.55;;
78581;SDS011;67878;46.242;5.974;2023-07-13T05:48:02;1.05;;;0.60;;
78581;SDS011;67878;46.242;5.974;2023-07-13T05:50:27;1.23;;;0.68;;
78581;SDS011;67878;46.242;5.974;2023-07-13T05:52:53;0.80;;;0.60;;
78581;SDS011;67878;46.242;5.974;2023-07-13T05:55:19;1.42;;;0.60;;
78581;SDS011;67878;46.242;5.974;2023-07-13T05:57:44;0.60;;;0.50;;
78581;SDS011;67878;46.242;5.974;2023-07-13T06:00:10;0.90;;;0.65;;
78581;SDS011;67878;46.242;5.974;2023-07-13T06:02:36;0.70;;;0.57;;
78581;SDS011;67878;46.242;5.974;2023-07-13T06:05:01;0.88;;;0.60;;
78581;SDS011;67878;46.242;5.974;2023-07-13T06:07:27;0.98;;;0.70;;
78581;SDS011;67878;46.242;5.974;2023-07-13T06:09:52;0.88;;;0.50;;
78581;SDS011;67878;46.242;5.974;2023-07-13T06:12:18;0.80;;;0.60;;
78581;SDS011;67878;46.242;5.974;2023-07-13T06:14:43;1.75;;;0.60;;
78581;SDS011;67878;46.242;5.974;2023-07-13T06:17:08;1.02;;;0.60;;
78581;SDS011;67878;46.242;5.974;2023-07-13T06:19:34;0.52;;;0.50;;
78581;SDS011;67878;46.242;5.974;2023-07-13T06:22:00;1.77;;;0.65;;
78581;SDS011;67878;46.242;5.974;2023-07-13T06:24:25;1.00;;;0.50;;
78581;SDS011;67878;46.242;5.974;2023-07-13T06:26:51;0.60;;;0.50;;
78581;SDS011;67878;46.242;5.974;2023-07-13T06:29:16;1.02;;;0.57;;
78581;SDS011;67878;46.242;5.974;2023-07-13T06:31:42;0.70;;;0.57;;
78581;SDS011;67878;46.242;5.974;2023-07-13T06:34:07;0.93;;;0.63;;
78581;SDS011;67878;46.242;5.974;2023-07-13T06:36:33;0.70;;;0.50;;
78581;SDS011;67878;46.242;5.974;2023-07-13T06:38:59;0.60;;;0.50;;
78581;SDS011;67878;46.242;5.974;2023-07-13T06:41:24;0.93;;;0.50;;
78581;SDS011;67878;46.242;5.974;2023-07-13T06:43:51;1.27;;;0.65;;
78581;SDS011;67878;46.242;5.974;2023-07-13T06:46:17;0.90;;;0.60;;
78581;SDS011;67878;46.242;5.974;2023-07-13T06:48:43;1.20;;;0.60;;
78581;SDS011;67878;46.242;5.974;2023-07-13T06:51:08;0.75;;;0.55;;
78581;SDS011;67878;46.242;5.974;2023-07-13T06:53:33;1.05;;;0.50;;
78581;SDS011;67878;46.242;5.974;2023-07-13T06:55:59;0.93;;;0.60;;
78581;SDS011;67878;46.242;5.974;2023-07-13T06:58:24;1.60;;;0.60;;
78581;SDS011;67878;46.242;5.974;2023-07-13T07:00:51;1.08;;;0.60;;
78581;SDS011;67878;46.242;5.974;2023-07-13T07:03:17;1.30;;;0.90;;
78581;SDS011;67878;46.242;5.974;2023-07-13T07:05:42;1.20;;;0.70;;
78581;SDS011;67878;46.242;5.974;2023-07-13T07:08:07;1.23;;;0.63;;
78581;SDS011;67878;46.242;5.974;2023-07-13T07:10:33;0.77;;;0.50;;
78581;SDS011;67878;46.242;5.974;2023-07-13T07:12:59;0.60;;;0.40;;
78581;SDS011;67878;46.242;5.974;2023-07-13T07:15:25;0.70;;;0.60;;
78581;SDS011;67878;46.242;5.974;2023-07-13T07:17:51;1.33;;;0.68;;
78581;SDS011;67878;46.242;5.974;2023-07-13T07:20:16;1.27;;;0.60;;
78581;SDS011;67878;46.242;5.974;2023-07-13T07:22:41;1.23;;;0.63;;
78581;SDS011;67878;46.242;5.974;2023-07-13T07:25:07;1.92;;;0.60;;
78581;SDS011;67878;46.242;5.974;2023-07-13T07:27:32;0.93;;;0.65;;
78581;SDS011;67878;46.242;5.974;2023-07-13T07:29:58;0.85;;;0.63;;
78581;SDS011;67878;46.242;5.974;2023-07-13T07:32:24;1.42;;;0.60;;
78581;SDS011;67878;46.242;5.974;2023-07-13T07:34:49;1.00;;;0.60;;
78581;SDS011;67878;46.242;5.974;2023-07-13T07:37:15;0.80;;;0.60;;
78581;SDS011;67878;46.242;5.974;2023-07-13T07:39:42;2.85;;;0.73;;
78581;SDS011;67878;46.242;5.974;2023-07-13T07:42:08;0.93;;;0.60;;
78581;SDS011;67878;46.242;5.974;2023-07-13T07:44:33;1.15;;;0.63;;
78581;SDS011;67878;46.242;5.974;2023-07-13T07:46:59;1.75;;;0.70;;
78581;SDS011;67878;46.242;5.974;2023-07-13T07:49:24;1.55;;;0.70;;
78581;SDS011;67878;46.242;5.974;2023-07-13T07:51:50;0.90;;;0.57;;
78581;SDS011;67878;46.242;5.974;2023-07-13T07:54:15;0.90;;;0.60;;
78581;SDS011;67878;46.242;5.974;2023-07-13T07:56:41;1.98;;;0.70;;
78581;SDS011;67878;46.242;5.974;2023-07-13T07:59:06;1.67;;;0.60;;
78581;SDS011;67878;46.242;5.974;2023-07-13T08:01:31;2.75;;;1.02;;
78581;SDS011;67878;46.242;5.974;2023-07-13T08:03:57;1.33;;;0.60;;
78581;SDS011;67878;46.242;5.974;2023-07-13T08:06:23;1.17;;;0.65;;
78581;SDS011;67878;46.242;5.974;2023-07-13T08:08:48;2.05;;;0.65;;
78581;SDS011;67878;46.242;5.974;2023-07-13T08:11:14;1.48;;;0.63;;
78581;SDS011;67878;46.242;5.974;2023-07-13T08:13:40;0.80;;;0.60;;
78581;SDS011;67878;46.242;5.974;2023-07-13T08:16:05;0.90;;;0.70;;
78581;SDS011;67878;46.242;5.974;2023-07-13T08:18:31;1.30;;;0.60;;
78581;SDS011;67878;46.242;5.974;2023-07-13T08:20:56;1.50;;;0.70;;
78581;SDS011;67878;46.242;5.974;2023-07-13T08:23:23;3.13;;;0.63;;
78581;SDS011;67878;46.242;5.974;2023-07-13T08:25:51;1.13;;;0.80;;
78581;SDS011;67878;46.242;5.974;2023-07-13T08:28:19;1.70;;;0.52;;
78581;SDS011;67878;46.242;5.974;2023-07-13T08:30:45;1.55;;;0.52;;
78581;SDS011;67878;46.242;5.974;2023-07-13T08:33:14;1.27;;;0.90;;
78581;SDS011;67878;46.242;5.974;2023-07-13T08:35:40;1.77;;;0.80;;
78581;SDS011;67878;46.242;5.974;2023-07-13T08:38:05;3.60;;;0.90;;
78581;SDS011;67878;46.242;5.974;2023-07-13T08:40:30;1.38;;;0.55;;
78581;SDS011;67878;46.242;5.974;2023-07-13T08:42:59;1.52;;;0.60;;
78581;SDS011;67878;46.242;5.974;2023-07-13T08:48:09;0.95;;;0.65;;
78581;SDS011;67878;46.242;5.974;2023-07-13T08:50:42;2.00;;;0.73;;
78581;SDS011;67878;46.242;5.974;2023-07-13T08:53:14;1.25;;;0.55;;
78581;SDS011;67878;46.242;5.974;2023-07-13T08:55:40;2.03;;;0.60;;
78581;SDS011;67878;46.242;5.974;2023-07-13T08:58:10;2.10;;;1.10;;
78581;SDS011;67878;46.242;5.974;2023-07-13T09:00:40;2.20;;;0.90;;
78581;SDS011;67878;46.242;5.974;2023-07-13T09:03:36;1.38;;;0.70;;
78581;SDS011;67878;46.242;5.974;2023-07-13T09:06:11;1.20;;;0.68;;
78581;SDS011;67878;46.242;5.974;2023-07-13T09:11:30;1.13;;;0.70;;
78581;SDS011;67878;46.242;5.974;2023-07-13T09:19:23;1.90;;;0.73;;
78581;SDS011;67878;46.242;5.974;2023-07-13T09:21:51;2.30;;;0.77;;
78581;SDS011;67878;46.242;5.974;2023-07-13T09:27:03;3.03;;;0.90;;
78581;SDS011;67878;46.242;5.974;2023-07-13T09:32:11;1.60;;;0.80;;
78581;SDS011;67878;46.242;5.974;2023-07-13T09:34:39;4.38;;;0.80;;
78581;SDS011;67878;46.242;5.974;2023-07-13T09:37:05;1.63;;;1.00;;
78581;SDS011;67878;46.242;5.974;2023-07-13T09:39:35;2.63;;;0.90;;
78581;SDS011;67878;46.242;5.974;2023-07-13T09:47:18;2.13;;;0.80;;
78581;SDS011;67878;46.242;5.974;2023-07-13T09:49:48;1.50;;;1.10;;
78581;SDS011;67878;46.242;5.974;2023-07-13T09:52:20;2.28;;;0.80;;
78581;SDS011;67878;46.242;5.974;2023-07-13T09:54:48;1.77;;;1.10;;
78581;SDS011;67878;46.242;5.974;2023-07-13T09:57:18;1.58;;;1.02;;
78581;SDS011;67878;46.242;5.974;2023-07-13T09:59:48;2.97;;;1.15;;
78581;SDS011;67878;46.242;5.974;2023-07-13T10:04:55;1.45;;;0.95;;
78581;SDS011;67878;46.242;5.974;2023-07-13T10:07:31;1.05;;;0.70;;
78581;SDS011;67878;46.242;5.974;2023-07-13T10:09:58;2.10;;;0.80;;
78581;SDS011;67878;46.242;5.974;2023-07-13T10:12:29;2.45;;;1.00;;
78581;SDS011;67878;46.242;5.974;2023-07-13T10:15:00;1.75;;;0.80;;
78581;SDS011;67878;46.242;5.974;2023-07-13T10:17:26;1.90;;;0.93;;
78581;SDS011;67878;46.242;5.974;2023-07-13T10:19:55;1.50;;;1.10;;
78581;SDS011;67878;46.242;5.974;2023-07-13T10:25:24;1.23;;;0.82;;
78581;SDS011;67878;46.242;5.974;2023-07-13T10:27:55;1.10;;;0.75;;
78581;SDS011;67878;46.242;5.974;2023-07-13T10:30:25;1.23;;;0.80;;
78581;SDS011;67878;46.242;5.974;2023-07-13T10:32:53;1.20;;;0.85;;
78581;SDS011;67878;46.242;5.974;2023-07-13T10:35:19;2.38;;;1.13;;
78581;SDS011;67878;46.242;5.974;2023-07-13T10:37:53;1.70;;;0.90;;
78581;SDS011;67878;46.242;5.974;2023-07-13T10:40:23;1.45;;;1.02;;
78581;SDS011;67878;46.242;5.974;2023-07-13T10:42:52;2.45;;;0.90;;
78581;SDS011;67878;46.242;5.974;2023-07-13T10:45:22;1.50;;;1.00;;
78581;SDS011;67878;46.242;5.974;2023-07-13T10:47:52;1.10;;;0.90;;
78581;SDS011;67878;46.242;5.974;2023-07-13T10:50:25;1.90;;;1.00;;
78581;SDS011;67878;46.242;5.974;2023-07-13T10:52:55;2.03;;;1.00;;
78581;SDS011;67878;46.242;5.974;2023-07-13T10:55:41;1.38;;;0.90;;
78581;SDS011;67878;46.242;5.974;2023-07-13T10:58:21;1.58;;;0.80;;
78581;SDS011;67878;46.242;5.974;2023-07-13T11:03:46;1.90;;;0.93;;
78581;SDS011;67878;46.242;5.974;2023-07-13T11:06:16;1.65;;;1.10;;
78581;SDS011;67878;46.242;5.974;2023-07-13T11:18:53;1.25;;;0.77;;
78581;SDS011;67878;46.242;5.974;2023-07-13T11:24:56;1.20;;;0.90;;
78581;SDS011;67878;46.242;5.974;2023-07-13T11:36:12;0.98;;;0.65;;
78581;SDS011;67878;46.242;5.974;2023-07-13T11:41:18;0.90;;;0.68;;
78581;SDS011;67878;46.242;5.974;2023-07-13T11:43:48;1.02;;;0.75;;
78581;SDS011;67878;46.242;5.974;2023-07-13T11:46:21;0.90;;;0.70;;
78581;SDS011;67878;46.242;5.974;2023-07-13T11:48:51;1.00;;;0.80;;
78581;SDS011;67878;46.242;5.974;2023-07-13T11:51:25;1.08;;;0.70;;
78581;SDS011;67878;46.242;5.974;2023-07-13T11:53:53;1.02;;;0.73;;
78581;SDS011;67878;46.242;5.974;2023-07-13T11:56:19;1.58;;;0.70;;
78581;SDS011;67878;46.242;5.974;2023-07-13T11:58:47;1.00;;;0.70;;
78581;SDS011;67878;46.242;5.974;2023-07-13T12:01:18;1.17;;;0.80;;
78581;SDS011;67878;46.242;5.974;2023-07-13T12:03:57;1.00;;;0.77;;
78581;SDS011;67878;46.242;5.974;2023-07-13T12:06:29;0.80;;;0.70;;
78581;SDS011;67878;46.242;5.974;2023-07-13T12:08:56;0.95;;;0.70;;
78581;SDS011;67878;46.242;5.974;2023-07-13T12:11:23;1.67;;;0.75;;
78581;SDS011;67878;46.242;5.974;2023-07-13T12:13:48;1.23;;;0.80;;
78581;SDS011;67878;46.242;5.974;2023-07-13T12:16:16;1.30;;;0.85;;
78581;SDS011;67878;46.242;5.974;2023-07-13T12:18:45;0.80;;;0.75;;
78581;SDS011;67878;46.242;5.974;2023-07-13T12:21:12;1.23;;;0.90;;
78581;SDS011;67878;46.242;5.974;2023-07-13T12:26:05;1.10;;;0.77;;
78581;SDS011;67878;46.242;5.974;2023-07-13T12:28:35;1.15;;;0.73;;
78581;SDS011;67878;46.242;5.974;2023-07-13T12:31:03;1.65;;;0.80;;
78581;SDS011;67878;46.242;5.974;2023-07-13T12:33:32;1.65;;;0.82;;
78581;SDS011;67878;46.242;5.974;2023-07-13T12:35:59;0.85;;;0.70;;
78581;SDS011;67878;46.242;5.974;2023-07-13T12:38:26;1.20;;;0.70;;
78581;SDS011;67878;46.242;5.974;2023-07-13T12:40:52;0.85;;;0.70;;
78581;SDS011;67878;46.242;5.974;2023-07-13T12:43:19;1.83;;;0.82;;
78581;SDS011;67878;46.242;5.974;2023-07-13T12:46:01;1.65;;;1.02;;
78581;SDS011;67878;46.242;5.974;2023-07-13T12:48:41;1.30;;;0.82;;
78581;SDS011;67878;46.242;5.974;2023-07-13T12:51:09;1.13;;;0.65;;
78581;SDS011;67878;46.242;5.974;2023-07-13T12:53:38;1.25;;;0.82;;
78581;SDS011;67878;46.242;5.974;2023-07-13T12:56:13;1.20;;;0.80;;
78581;SDS011;67878;46.242;5.974;2023-07-13T12:58:47;1.00;;;0.70;;
78581;SDS011;67878;46.242;5.974;2023-07-13T13:01:25;0.95;;;0.80;;
78581;SDS011;67878;46.242;5.974;2023-07-13T13:03:52;1.00;;;0.80;;
78581;SDS011;67878;46.242;5.974;2023-07-13T13:08:45;1.45;;;0.80;;
78581;SDS011;67878;46.242;5.974;2023-07-13T13:11:13;0.93;;;0.70;;
78581;SDS011;67878;46.242;5.974;2023-07-13T13:13:44;0.80;;;0.70;;
78581;SDS011;67878;46.242;5.974;2023-07-13T13:16:31;1.00;;;0.70;;
78581;SDS011;67878;46.242;5.974;2023-07-13T13:19:08;1.00;;;0.73;;
78581;SDS011;67878;46.242;5.974;2023-07-13T13:24:00;1.23;;;0.70;;
78581;SDS011;67878;46.242;5.974;2023-07-13T13:26:25;1.10;;;0.80;;
78581;SDS011;67878;46.242;5.974;2023-07-13T13:28:51;1.15;;;0.88;;
78581;SDS011;67878;46.242;5.974;2023-07-13T13:31:16;1.23;;;0.70;;
78581;SDS011;67878;46.242;5.974;2023-07-13T13:33:42;0.85;;;0.60;;
78581;SDS011;67878;46.242;5.974;2023-07-13T13:36:14;1.33;;;0.90;;
78581;SDS011;67878;46.242;5.974;2023-07-13T13:38:40;0.63;;;0.52;;
78581;SDS011;67878;46.242;5.974;2023-07-13T13:41:07;0.90;;;0.80;;
78581;SDS011;67878;46.242;5.974;2023-07-13T13:43:35;0.80;;;0.60;;
78581;SDS011;67878;46.242;5.974;2023-07-13T13:46:00;0.85;;;0.68;;
78581;SDS011;67878;46.242;5.974;2023-07-13T13:48:30;1.25;;;0.80;;
78581;SDS011;67878;46.242;5.974;2023-07-13T13:50:57;1.27;;;0.75;;
78581;SDS011;67878;46.242;5.974;2023-07-13T13:53:23;1.00;;;0.70;;
78581;SDS011;67878;46.242;5.974;2023-07-13T13:55:49;0.80;;;0.73;;
78581;SDS011;67878;46.242;5.974;2023-07-13T13:58:15;0.75;;;0.70;;
78581;SDS011;67878;46.242;5.974;2023-07-13T14:00:40;1.17;;;0.70;;
78581;SDS011;67878;46.242;5.974;2023-07-13T14:03:08;1.10;;;0.80;;
78581;SDS011;67878;46.242;5.974;2023-07-13T14:05:42;1.40;;;0.70;;
78581;SDS011;67878;46.242;5.974;2023-07-13T14:08:14;0.93;;;0.63;;
78581;SDS011;67878;46.242;5.974;2023-07-13T14:10:41;1.17;;;0.75;;
78581;SDS011;67878;46.242;5.974;2023-07-13T14:13:17;0.90;;;0.60;;
78581;SDS011;67878;46.242;5.974;2023-07-13T14:15:46;0.88;;;0.60;;
78581;SDS011;67878;46.242;5.974;2023-07-13T14:18:12;1.30;;;0.80;;
78581;SDS011;67878;46.242;5.974;2023-07-13T14:20:42;1.15;;;0.70;;
78581;SDS011;67878;46.242;5.974;2023-07-13T14:23:09;0.80;;;0.70;;
78581;SDS011;67878;46.242;5.974;2023-07-13T14:25:34;0.73;;;0.60;;
78581;SDS011;67878;46.242;5.974;2023-07-13T14:28:00;0.93;;;0.60;;
78581;SDS011;67878;46.242;5.974;2023-07-13T14:30:34;0.85;;;0.70;;
78581;SDS011;67878;46.242;5.974;2023-07-13T14:32:59;0.90;;;0.70;;
78581;SDS011;67878;46.242;5.974;2023-07-13T14:35:24;1.13;;;0.60;;
78581;SDS011;67878;46.242;5.974;2023-07-13T14:37:50;0.80;;;0.60;;
78581;SDS011;67878;46.242;5.974;2023-07-13T14:40:17;0.77;;;0.57;;
78581;SDS011;67878;46.242;5.974;2023-07-13T14:42:45;0.70;;;0.68;;
78581;SDS011;67878;46.242;5.974;2023-07-13T14:45:14;1.95;;;0.90;;
78581;SDS011;67878;46.242;5.974;2023-07-13T14:47:41;0.60;;;0.57;;
78581;SDS011;67878;46.242;5.974;2023-07-13T14:50:11;0.90;;;0.70;;
78581;SDS011;67878;46.242;5.974;2023-07-13T14:52:41;1.00;;;0.70;;
78581;SDS011;67878;46.242;5.974;2023-07-13T14:55:13;0.80;;;0.70;;
78581;SDS011;67878;46.242;5.974;2023-07-13T14:57:40;0.88;;;0.63;;
78581;SDS011;67878;46.242;5.974;2023-07-13T15:00:15;0.73;;;0.70;;
78581;SDS011;67878;46.242;5.974;2023-07-13T15:02:44;1.00;;;0.80;;
78581;SDS011;67878;46.242;5.974;2023-07-13T15:05:13;1.73;;;0.60;;
78581;SDS011;67878;46.242;5.974;2023-07-13T15:07:40;0.68;;;0.60;;
78581;SDS011;67878;46.242;5.974;2023-07-13T15:10:19;0.80;;;0.50;;
78581;SDS011;67878;46.242;5.974;2023-07-13T15:12:46;1.20;;;0.50;;
78581;SDS011;67878;46.242;5.974;2023-07-13T15:15:12;0.75;;;0.68;;
78581;SDS011;67878;46.242;5.974;2023-07-13T15:17:39;0.80;;;0.68;;
78581;SDS011;67878;46.242;5.974;2023-07-13T15:20:06;0.93;;;0.65;;
78581;SDS011;67878;46.242;5.974;2023-07-13T15:22:43;0.95;;;0.70;;
78581;SDS011;67878;46.242;5.974;2023-07-13T15:25:14;1.08;;;0.70;;
78581;SDS011;67878;46.242;5.974;2023-07-13T15:27:41;0.88;;;0.73;;
78581;SDS011;67878;46.242;5.974;2023-07-13T15:30:07;0.95;;;0.70;;
78581;SDS011;67878;46.242;5.974;2023-07-13T15:32:32;1.17;;;0.90;;
78581;SDS011;67878;46.242;5.974;2023-07-13T15:34:58;0.80;;;0.60;;
78581;SDS011;67878;46.242;5.974;2023-07-13T15:37:23;1.80;;;0.60;;
78581;SDS011;67878;46.242;5.974;2023-07-13T15:39:49;1.05;;;0.80;;
78581;SDS011;67878;46.242;5.974;2023-07-13T15:42:19;0.93;;;0.63;;
78581;SDS011;67878;46.242;5.974;2023-07-13T15:44:45;1.88;;;0.80;;
78581;SDS011;67878;46.242;5.974;2023-07-13T15:47:12;0.63;;;0.60;;
78581;SDS011;67878;46.242;5.974;2023-07-13T15:49:39;1.10;;;0.80;;
78581;SDS011;67878;46.242;5.974;2023-07-13T15:52:05;1.05;;;0.73;;
78581;SDS011;67878;46.242;5.974;2023-07-13T15:54:56;0.80;;;0.57;;
78581;SDS011;67878;46.242;5.974;2023-07-13T15:57:24;0.80;;;0.80;;